sensor_id;sensor_type;location;lat;lon;timestamp;P1;durP1;ratioP1;P2;durP2;ratioP2
24635;SDS011;12772;49.794;10.024;2023-04-15T00:00:32;4.32;;;3.42;;
24635;SDS011;12772;49.794;10.024;2023-04-15T00:04:34;5.95;;;4.45;;
24635;SDS011;12772;49.794;10.024;2023-04-15T00:08:36;5.20;;;3.55;;
24635;SDS011;12772;49.794;10.024;2023-04-15T00:12:39;3.88;;;3.50;;
24635;SDS011;12772;49.794;10.024;2023-04-15T00:16:41;4.13;;;3.80;;
24635;SDS011;12772;49.794;10.024;2023-04-15T00:20:43;4.55;;;4.03;;
24635;SDS011;12772;49.794;10.024;2023-04-15T00:24:45;4.60;;;3.85;;
24635;SDS011;12772;49.794;10.024;2023-04-15T00:28:48;3.78;;;3.47;;
24635;SDS011;12772;49.794;10.024;2023-04-15T00:32:51;4.82;;;3.45;;
24635;SDS011;12772;49.794;10.024;2023-04-15T00:36:53;3.72;;;3.42;;
24635;SDS011;12772;49.794;10.024;2023-04-15T00:40:55;5.85;;;3.72;;
24635;SDS011;12772;49.794;10.024;2023-04-15T00:44:58;3.92;;;3.47;;
24635;SDS011;12772;49.794;10.024;2023-04-15T00:49:00;3.55;;;3.25;;
24635;SDS011;12772;49.794;10.024;2023-04-15T00:53:04;5.53;;;3.72;;
24635;SDS011;12772;49.794;10.024;2023-04-15T00:57:06;3.85;;;3.45;;
24635;SDS011;12772;49.794;10.024;2023-04-15T01:01:09;4.22;;;3.83;;
24635;SDS011;12772;49.794;10.024;2023-04-15T01:05:11;3.53;;;3.22;;
24635;SDS011;12772;49.794;10.024;2023-04-15T01:09:13;5.50;;;3.85;;
24635;SDS011;12772;49.794;10.024;2023-04-15T01:13:15;5.43;;;4.05;;
24635;SDS011;12772;49.794;10.024;2023-04-15T01:17:17;4.10;;;3.75;;
24635;SDS011;12772;49.794;10.024;2023-04-15T01:21:20;5.65;;;4.15;;
24635;SDS011;12772;49.794;10.024;2023-04-15T01:25:32;5.20;;;4.30;;
24635;SDS011;12772;49.794;10.024;2023-04-15T01:29:36;8.05;;;4.40;;
24635;SDS011;12772;49.794;10.024;2023-04-15T01:33:39;5.28;;;4.53;;
24635;SDS011;12772;49.794;10.024;2023-04-15T01:37:42;5.30;;;4.80;;
24635;SDS011;12772;49.794;10.024;2023-04-15T01:41:45;5.20;;;4.45;;
24635;SDS011;12772;49.794;10.024;2023-04-15T01:45:47;5.22;;;4.72;;
24635;SDS011;12772;49.794;10.024;2023-04-15T01:49:49;5.10;;;4.18;;
24635;SDS011;12772;49.794;10.024;2023-04-15T01:53:51;5.63;;;4.68;;
24635;SDS011;12772;49.794;10.024;2023-04-15T01:57:56;5.38;;;4.78;;
24635;SDS011;12772;49.794;10.024;2023-04-15T02:01:58;5.65;;;4.57;;
24635;SDS011;12772;49.794;10.024;2023-04-15T02:06:00;5.03;;;4.53;;
24635;SDS011;12772;49.794;10.024;2023-04-15T02:10:04;4.40;;;4.00;;
24635;SDS011;12772;49.794;10.024;2023-04-15T02:14:06;6.82;;;5.05;;
24635;SDS011;12772;49.794;10.024;2023-04-15T02:18:08;5.28;;;4.78;;
24635;SDS011;12772;49.794;10.024;2023-04-15T02:22:10;6.05;;;5.45;;
24635;SDS011;12772;49.794;10.024;2023-04-15T02:26:17;5.63;;;5.00;;
24635;SDS011;12772;49.794;10.024;2023-04-15T02:30:20;4.88;;;4.38;;
24635;SDS011;12772;49.794;10.024;2023-04-15T02:34:23;6.93;;;5.75;;
24635;SDS011;12772;49.794;10.024;2023-04-15T02:38:26;6.13;;;4.60;;
24635;SDS011;12772;49.794;10.024;2023-04-15T02:42:28;4.72;;;4.32;;
24635;SDS011;12772;49.794;10.024;2023-04-15T02:46:31;6.32;;;3.92;;
24635;SDS011;12772;49.794;10.024;2023-04-15T02:50:33;4.80;;;3.97;;
24635;SDS011;12772;49.794;10.024;2023-04-15T02:54:37;6.05;;;4.50;;
24635;SDS011;12772;49.794;10.024;2023-04-15T02:58:39;4.80;;;4.40;;
24635;SDS011;12772;49.794;10.024;2023-04-15T03:02:41;4.97;;;4.35;;
24635;SDS011;12772;49.794;10.024;2023-04-15T03:06:45;4.82;;;3.97;;
24635;SDS011;12772;49.794;10.024;2023-04-15T03:10:47;6.60;;;4.82;;
24635;SDS011;12772;49.794;10.024;2023-04-15T03:14:51;6.68;;;4.57;;
24635;SDS011;12772;49.794;10.024;2023-04-15T03:18:53;5.35;;;4.53;;
24635;SDS011;12772;49.794;10.024;2023-04-15T03:22:55;4.82;;;4.35;;
24635;SDS011;12772;49.794;10.024;2023-04-15T03:26:57;4.97;;;4.07;;
24635;SDS011;12772;49.794;10.024;2023-04-15T03:31:01;5.38;;;4.70;;
24635;SDS011;12772;49.794;10.024;2023-04-15T03:35:03;6.22;;;4.25;;
24635;SDS011;12772;49.794;10.024;2023-04-15T03:39:05;4.93;;;4.43;;
24635;SDS011;12772;49.794;10.024;2023-04-15T03:43:08;6.45;;;4.68;;
24635;SDS011;12772;49.794;10.024;2023-04-15T03:47:10;4.43;;;4.13;;
24635;SDS011;12772;49.794;10.024;2023-04-15T03:51:12;5.38;;;4.40;;
24635;SDS011;12772;49.794;10.024;2023-04-15T03:55:14;4.80;;;3.38;;
24635;SDS011;12772;49.794;10.024;2023-04-15T03:59:16;5.70;;;3.88;;
24635;SDS011;12772;49.794;10.024;2023-04-15T04:03:18;6.47;;;3.78;;
24635;SDS011;12772;49.794;10.024;2023-04-15T04:07:22;4.80;;;4.10;;
24635;SDS011;12772;49.794;10.024;2023-04-15T04:11:24;4.40;;;4.00;;
24635;SDS011;12772;49.794;10.024;2023-04-15T04:15:27;5.25;;;4.53;;
24635;SDS011;12772;49.794;10.024;2023-04-15T04:19:29;6.82;;;4.60;;
24635;SDS011;12772;49.794;10.024;2023-04-15T04:23:31;4.00;;;3.60;;
24635;SDS011;12772;49.794;10.024;2023-04-15T04:27:33;4.45;;;4.05;;
24635;SDS011;12772;49.794;10.024;2023-04-15T04:31:36;4.43;;;4.03;;
24635;SDS011;12772;49.794;10.024;2023-04-15T04:35:38;4.38;;;3.80;;
24635;SDS011;12772;49.794;10.024;2023-04-15T04:39:41;4.05;;;3.75;;
24635;SDS011;12772;49.794;10.024;2023-04-15T04:43:43;5.30;;;3.58;;
24635;SDS011;12772;49.794;10.024;2023-04-15T04:47:45;5.07;;;4.15;;
24635;SDS011;12772;49.794;10.024;2023-04-15T04:51:48;4.47;;;4.07;;
24635;SDS011;12772;49.794;10.024;2023-04-15T04:55:50;3.97;;;3.58;;
24635;SDS011;12772;49.794;10.024;2023-04-15T04:59:52;4.47;;;4.07;;
24635;SDS011;12772;49.794;10.024;2023-04-15T05:03:54;5.25;;;4.03;;
24635;SDS011;12772;49.794;10.024;2023-04-15T05:07:56;7.03;;;6.00;;
24635;SDS011;12772;49.794;10.024;2023-04-15T05:11:59;4.78;;;4.38;;
24635;SDS011;12772;49.794;10.024;2023-04-15T05:16:01;6.68;;;4.68;;
24635;SDS011;12772;49.794;10.024;2023-04-15T05:20:03;5.05;;;4.30;;
24635;SDS011;12772;49.794;10.024;2023-04-15T05:24:05;3.88;;;3.58;;
24635;SDS011;12772;49.794;10.024;2023-04-15T05:28:07;3.83;;;3.42;;
24635;SDS011;12772;49.794;10.024;2023-04-15T05:32:09;4.18;;;3.80;;
24635;SDS011;12772;49.794;10.024;2023-04-15T05:36:12;4.30;;;4.00;;
24635;SDS011;12772;49.794;10.024;2023-04-15T05:40:14;4.63;;;4.22;;
24635;SDS011;12772;49.794;10.024;2023-04-15T05:44:16;4.28;;;3.95;;
24635;SDS011;12772;49.794;10.024;2023-04-15T05:48:18;4.38;;;3.95;;
24635;SDS011;12772;49.794;10.024;2023-04-15T05:52:20;5.13;;;4.10;;
24635;SDS011;12772;49.794;10.024;2023-04-15T05:56:22;4.28;;;3.83;;
24635;SDS011;12772;49.794;10.024;2023-04-15T06:00:26;5.47;;;3.72;;
24635;SDS011;12772;49.794;10.024;2023-04-15T06:04:28;5.03;;;4.03;;
24635;SDS011;12772;49.794;10.024;2023-04-15T06:08:30;4.60;;;4.20;;
24635;SDS011;12772;49.794;10.024;2023-04-15T06:12:32;4.00;;;3.72;;
24635;SDS011;12772;49.794;10.024;2023-04-15T06:16:34;4.93;;;4.53;;
24635;SDS011;12772;49.794;10.024;2023-04-15T06:20:36;4.88;;;4.00;;
24635;SDS011;12772;49.794;10.024;2023-04-15T06:24:39;4.30;;;3.90;;
24635;SDS011;12772;49.794;10.024;2023-04-15T06:28:41;4.70;;;4.10;;
24635;SDS011;12772;49.794;10.024;2023-04-15T06:32:43;4.35;;;3.95;;
24635;SDS011;12772;49.794;10.024;2023-04-15T06:36:45;4.15;;;3.72;;
24635;SDS011;12772;49.794;10.024;2023-04-15T06:40:47;4.80;;;3.47;;
24635;SDS011;12772;49.794;10.024;2023-04-15T06:44:49;4.00;;;3.63;;
24635;SDS011;12772;49.794;10.024;2023-04-15T06:48:51;4.65;;;3.70;;
24635;SDS011;12772;49.794;10.024;2023-04-15T06:52:54;4.18;;;3.65;;
24635;SDS011;12772;49.794;10.024;2023-04-15T06:56:56;3.78;;;3.42;;
24635;SDS011;12772;49.794;10.024;2023-04-15T07:00:58;4.35;;;3.83;;
24635;SDS011;12772;49.794;10.024;2023-04-15T07:05:00;4.20;;;3.45;;
24635;SDS011;12772;49.794;10.024;2023-04-15T07:09:04;4.13;;;3.70;;
24635;SDS011;12772;49.794;10.024;2023-04-15T07:13:06;3.72;;;3.42;;
24635;SDS011;12772;49.794;10.024;2023-04-15T07:17:08;4.63;;;3.42;;
24635;SDS011;12772;49.794;10.024;2023-04-15T07:21:10;5.25;;;3.85;;
24635;SDS011;12772;49.794;10.024;2023-04-15T07:25:13;4.55;;;4.15;;
24635;SDS011;12772;49.794;10.024;2023-04-15T07:29:15;4.13;;;3.80;;
24635;SDS011;12772;49.794;10.024;2023-04-15T07:33:17;5.00;;;4.60;;
24635;SDS011;12772;49.794;10.024;2023-04-15T07:37:20;4.38;;;3.95;;
24635;SDS011;12772;49.794;10.024;2023-04-15T07:41:22;4.65;;;4.25;;
24635;SDS011;12772;49.794;10.024;2023-04-15T07:45:25;7.55;;;5.32;;
24635;SDS011;12772;49.794;10.024;2023-04-15T07:49:27;5.88;;;4.80;;
24635;SDS011;12772;49.794;10.024;2023-04-15T07:53:29;5.22;;;4.82;;
24635;SDS011;12772;49.794;10.024;2023-04-15T07:57:32;5.20;;;4.80;;
24635;SDS011;12772;49.794;10.024;2023-04-15T08:01:35;4.72;;;4.40;;
24635;SDS011;12772;49.794;10.024;2023-04-15T08:05:38;4.78;;;4.38;;
24635;SDS011;12772;49.794;10.024;2023-04-15T08:09:40;5.22;;;4.72;;
24635;SDS011;12772;49.794;10.024;2023-04-15T08:13:43;4.80;;;4.40;;
24635;SDS011;12772;49.794;10.024;2023-04-15T08:17:46;9.30;;;7.65;;
24635;SDS011;12772;49.794;10.024;2023-04-15T08:21:48;5.68;;;5.10;;
24635;SDS011;12772;49.794;10.024;2023-04-15T08:25:51;4.97;;;4.53;;
24635;SDS011;12772;49.794;10.024;2023-04-15T08:29:53;4.38;;;3.80;;
24635;SDS011;12772;49.794;10.024;2023-04-15T08:33:56;3.85;;;3.58;;
24635;SDS011;12772;49.794;10.024;2023-04-15T08:37:58;4.40;;;4.00;;
24635;SDS011;12772;49.794;10.024;2023-04-15T08:42:01;4.15;;;3.85;;
24635;SDS011;12772;49.794;10.024;2023-04-15T08:46:07;4.18;;;3.88;;
24635;SDS011;12772;49.794;10.024;2023-04-15T08:50:11;4.63;;;3.80;;
24635;SDS011;12772;49.794;10.024;2023-04-15T08:54:15;4.18;;;3.53;;
24635;SDS011;12772;49.794;10.024;2023-04-15T08:58:18;3.40;;;3.10;;
24635;SDS011;12772;49.794;10.024;2023-04-15T09:02:20;3.42;;;3.13;;
24635;SDS011;12772;49.794;10.024;2023-04-15T09:06:24;3.90;;;3.60;;
24635;SDS011;12772;49.794;10.024;2023-04-15T09:10:27;3.15;;;2.90;;
24635;SDS011;12772;49.794;10.024;2023-04-15T09:14:29;3.50;;;3.20;;
24635;SDS011;12772;49.794;10.024;2023-04-15T09:18:32;3.42;;;3.22;;
24635;SDS011;12772;49.794;10.024;2023-04-15T09:22:36;3.60;;;3.30;;
24635;SDS011;12772;49.794;10.024;2023-04-15T09:26:39;2.80;;;2.60;;
24635;SDS011;12772;49.794;10.024;2023-04-15T09:30:41;2.30;;;2.10;;
24635;SDS011;12772;49.794;10.024;2023-04-15T09:34:45;2.47;;;1.98;;
24635;SDS011;12772;49.794;10.024;2023-04-15T09:38:53;3.78;;;2.22;;
24635;SDS011;12772;49.794;10.024;2023-04-15T09:42:56;3.05;;;2.75;;
24635;SDS011;12772;49.794;10.024;2023-04-15T09:46:58;2.50;;;2.30;;
24635;SDS011;12772;49.794;10.024;2023-04-15T09:51:01;2.80;;;2.42;;
24635;SDS011;12772;49.794;10.024;2023-04-15T09:55:03;2.20;;;2.10;;
24635;SDS011;12772;49.794;10.024;2023-04-15T09:59:07;2.50;;;2.30;;
24635;SDS011;12772;49.794;10.024;2023-04-15T10:03:09;1.92;;;1.83;;
24635;SDS011;12772;49.794;10.024;2023-04-15T10:07:12;2.30;;;2.10;;
24635;SDS011;12772;49.794;10.024;2023-04-15T10:11:17;2.25;;;1.90;;
24635;SDS011;12772;49.794;10.024;2023-04-15T10:15:22;3.15;;;2.00;;
24635;SDS011;12772;49.794;10.024;2023-04-15T10:19:26;1.85;;;1.73;;
24635;SDS011;12772;49.794;10.024;2023-04-15T10:23:31;1.95;;;1.52;;
24635;SDS011;12772;49.794;10.024;2023-04-15T10:27:34;2.00;;;1.90;;
24635;SDS011;12772;49.794;10.024;2023-04-15T10:31:36;2.15;;;1.70;;
24635;SDS011;12772;49.794;10.024;2023-04-15T10:35:39;1.88;;;1.77;;
24635;SDS011;12772;49.794;10.024;2023-04-15T10:39:43;1.67;;;1.58;;
24635;SDS011;12772;49.794;10.024;2023-04-15T10:44:01;1.38;;;1.30;;
24635;SDS011;12772;49.794;10.024;2023-04-15T10:48:05;1.60;;;1.50;;
24635;SDS011;12772;49.794;10.024;2023-04-15T10:52:08;1.40;;;1.38;;
24635;SDS011;12772;49.794;10.024;2023-04-15T10:56:11;1.40;;;1.30;;
24635;SDS011;12772;49.794;10.024;2023-04-15T11:00:14;2.13;;;1.92;;
24635;SDS011;12772;49.794;10.024;2023-04-15T11:08:58;1.67;;;1.58;;
24635;SDS011;12772;49.794;10.024;2023-04-15T11:17:26;2.03;;;1.92;;
24635;SDS011;12772;49.794;10.024;2023-04-15T11:21:29;3.75;;;2.30;;
24635;SDS011;12772;49.794;10.024;2023-04-15T11:25:32;2.47;;;2.30;;
24635;SDS011;12772;49.794;10.024;2023-04-15T11:29:36;2.10;;;2.00;;
24635;SDS011;12772;49.794;10.024;2023-04-15T11:33:55;2.20;;;2.10;;
24635;SDS011;12772;49.794;10.024;2023-04-15T11:38:01;2.25;;;2.08;;
24635;SDS011;12772;49.794;10.024;2023-04-15T11:42:15;2.25;;;2.15;;
24635;SDS011;12772;49.794;10.024;2023-04-15T11:46:19;2.58;;;2.47;;
24635;SDS011;12772;49.794;10.024;2023-04-15T11:50:22;2.20;;;2.10;;
24635;SDS011;12772;49.794;10.024;2023-04-15T11:54:24;2.45;;;2.35;;
24635;SDS011;12772;49.794;10.024;2023-04-15T11:58:29;2.33;;;2.22;;
24635;SDS011;12772;49.794;10.024;2023-04-15T12:02:35;2.35;;;2.20;;
24635;SDS011;12772;49.794;10.024;2023-04-15T12:06:37;1.98;;;1.85;;
24635;SDS011;12772;49.794;10.024;2023-04-15T12:10:40;2.35;;;2.15;;
24635;SDS011;12772;49.794;10.024;2023-04-15T12:14:42;1.80;;;1.70;;
24635;SDS011;12772;49.794;10.024;2023-04-15T12:18:45;2.00;;;1.90;;
24635;SDS011;12772;49.794;10.024;2023-04-15T12:22:48;2.20;;;2.10;;
24635;SDS011;12772;49.794;10.024;2023-04-15T12:26:51;2.30;;;2.10;;
24635;SDS011;12772;49.794;10.024;2023-04-15T12:30:56;2.30;;;2.20;;
24635;SDS011;12772;49.794;10.024;2023-04-15T12:34:58;2.60;;;2.40;;
24635;SDS011;12772;49.794;10.024;2023-04-15T12:39:01;2.45;;;2.20;;
24635;SDS011;12772;49.794;10.024;2023-04-15T12:43:07;2.10;;;2.00;;
24635;SDS011;12772;49.794;10.024;2023-04-15T12:47:11;2.13;;;2.03;;
24635;SDS011;12772;49.794;10.024;2023-04-15T12:51:15;2.33;;;2.22;;
24635;SDS011;12772;49.794;10.024;2023-04-15T12:55:18;2.35;;;2.22;;
24635;SDS011;12772;49.794;10.024;2023-04-15T12:59:21;2.17;;;1.98;;
24635;SDS011;12772;49.794;10.024;2023-04-15T13:03:25;2.65;;;2.45;;
24635;SDS011;12772;49.794;10.024;2023-04-15T13:07:28;2.30;;;2.20;;
24635;SDS011;12772;49.794;10.024;2023-04-15T13:11:31;1.95;;;1.85;;
24635;SDS011;12772;49.794;10.024;2023-04-15T13:15:36;2.17;;;2.08;;
24635;SDS011;12772;49.794;10.024;2023-04-15T13:19:39;2.20;;;2.10;;
24635;SDS011;12772;49.794;10.024;2023-04-15T13:23:42;2.00;;;1.90;;
24635;SDS011;12772;49.794;10.024;2023-04-15T13:27:46;1.90;;;1.80;;
24635;SDS011;12772;49.794;10.024;2023-04-15T13:31:50;2.20;;;2.00;;
24635;SDS011;12772;49.794;10.024;2023-04-15T13:35:54;2.20;;;1.83;;
24635;SDS011;12772;49.794;10.024;2023-04-15T13:39:57;3.10;;;2.90;;
24635;SDS011;12772;49.794;10.024;2023-04-15T13:44:01;2.58;;;2.38;;
24635;SDS011;12772;49.794;10.024;2023-04-15T13:48:05;5.13;;;3.90;;
24635;SDS011;12772;49.794;10.024;2023-04-15T13:52:09;6.50;;;4.90;;
24635;SDS011;12772;49.794;10.024;2023-04-15T13:56:13;6.97;;;5.03;;
24635;SDS011;12772;49.794;10.024;2023-04-15T14:00:17;3.97;;;3.60;;
24635;SDS011;12772;49.794;10.024;2023-04-15T14:04:20;2.50;;;2.20;;
24635;SDS011;12772;49.794;10.024;2023-04-15T14:08:23;2.67;;;2.47;;
24635;SDS011;12772;49.794;10.024;2023-04-15T14:12:27;2.60;;;2.40;;
24635;SDS011;12772;49.794;10.024;2023-04-15T14:16:29;2.05;;;1.95;;
24635;SDS011;12772;49.794;10.024;2023-04-15T14:20:33;2.83;;;1.75;;
24635;SDS011;12772;49.794;10.024;2023-04-15T14:24:35;6.22;;;2.28;;
24635;SDS011;12772;49.794;10.024;2023-04-15T14:28:38;8.52;;;1.88;;
24635;SDS011;12772;49.794;10.024;2023-04-15T14:32:40;4.72;;;1.90;;
24635;SDS011;12772;49.794;10.024;2023-04-15T14:36:42;1.63;;;1.52;;
24635;SDS011;12772;49.794;10.024;2023-04-15T14:40:45;1.60;;;1.50;;
24635;SDS011;12772;49.794;10.024;2023-04-15T14:44:47;1.80;;;1.60;;
24635;SDS011;12772;49.794;10.024;2023-04-15T14:48:49;3.40;;;1.55;;
24635;SDS011;12772;49.794;10.024;2023-04-15T14:52:51;2.78;;;1.50;;
24635;SDS011;12772;49.794;10.024;2023-04-15T14:56:54;4.82;;;1.80;;
24635;SDS011;12772;49.794;10.024;2023-04-15T15:00:56;4.72;;;1.70;;
24635;SDS011;12772;49.794;10.024;2023-04-15T15:04:59;1.92;;;1.52;;
24635;SDS011;12772;49.794;10.024;2023-04-15T15:09:03;7.13;;;1.75;;
24635;SDS011;12772;49.794;10.024;2023-04-15T15:13:06;4.65;;;1.60;;
24635;SDS011;12772;49.794;10.024;2023-04-15T15:17:09;3.47;;;1.35;;
24635;SDS011;12772;49.794;10.024;2023-04-15T15:21:15;1.65;;;1.55;;
24635;SDS011;12772;49.794;10.024;2023-04-15T15:25:17;2.58;;;1.52;;
24635;SDS011;12772;49.794;10.024;2023-04-15T15:29:19;1.50;;;1.42;;
24635;SDS011;12772;49.794;10.024;2023-04-15T15:33:21;2.85;;;1.67;;
24635;SDS011;12772;49.794;10.024;2023-04-15T15:37:24;3.45;;;1.58;;
24635;SDS011;12772;49.794;10.024;2023-04-15T15:41:26;3.10;;;1.55;;
24635;SDS011;12772;49.794;10.024;2023-04-15T15:45:28;3.25;;;1.70;;
24635;SDS011;12772;49.794;10.024;2023-04-15T15:49:30;1.92;;;1.83;;
24635;SDS011;12772;49.794;10.024;2023-04-15T15:53:33;2.50;;;1.85;;
24635;SDS011;12772;49.794;10.024;2023-04-15T15:57:35;1.70;;;1.60;;
24635;SDS011;12772;49.794;10.024;2023-04-15T16:01:37;1.70;;;1.40;;
24635;SDS011;12772;49.794;10.024;2023-04-15T16:05:40;7.20;;;1.90;;
24635;SDS011;12772;49.794;10.024;2023-04-15T16:09:42;10.43;;;8.20;;
24635;SDS011;12772;49.794;10.024;2023-04-15T16:13:44;10.13;;;9.02;;
24635;SDS011;12772;49.794;10.024;2023-04-15T16:17:46;4.40;;;4.03;;
24635;SDS011;12772;49.794;10.024;2023-04-15T16:21:48;17.88;;;16.77;;
24635;SDS011;12772;49.794;10.024;2023-04-15T16:25:51;7.88;;;7.38;;
24635;SDS011;12772;49.794;10.024;2023-04-15T16:29:53;10.27;;;9.38;;
24635;SDS011;12772;49.794;10.024;2023-04-15T16:33:55;8.82;;;7.88;;
24635;SDS011;12772;49.794;10.024;2023-04-15T16:37:58;5.10;;;4.07;;
24635;SDS011;12772;49.794;10.024;2023-04-15T16:42:01;2.88;;;2.67;;
24635;SDS011;12772;49.794;10.024;2023-04-15T16:46:03;3.08;;;2.85;;
24635;SDS011;12772;49.794;10.024;2023-04-15T16:50:06;3.10;;;2.83;;
24635;SDS011;12772;49.794;10.024;2023-04-15T16:54:09;7.63;;;5.53;;
24635;SDS011;12772;49.794;10.024;2023-04-15T16:58:11;7.78;;;5.22;;
24635;SDS011;12772;49.794;10.024;2023-04-15T17:02:13;7.30;;;5.35;;
24635;SDS011;12772;49.794;10.024;2023-04-15T17:06:16;7.20;;;5.22;;
24635;SDS011;12772;49.794;10.024;2023-04-15T17:10:18;6.45;;;4.80;;
24635;SDS011;12772;49.794;10.024;2023-04-15T17:14:20;4.97;;;4.28;;
24635;SDS011;12772;49.794;10.024;2023-04-15T17:18:22;2.83;;;2.63;;
24635;SDS011;12772;49.794;10.024;2023-04-15T17:22:24;3.42;;;3.08;;
24635;SDS011;12772;49.794;10.024;2023-04-15T17:26:27;6.32;;;5.28;;
24635;SDS011;12772;49.794;10.024;2023-04-15T17:30:31;5.53;;;5.03;;
24635;SDS011;12772;49.794;10.024;2023-04-15T17:34:33;3.17;;;2.97;;
24635;SDS011;12772;49.794;10.024;2023-04-15T17:38:35;2.22;;;2.13;;
24635;SDS011;12772;49.794;10.024;2023-04-15T17:42:37;1.90;;;1.80;;
24635;SDS011;12772;49.794;10.024;2023-04-15T17:46:40;1.40;;;1.40;;
24635;SDS011;12772;49.794;10.024;2023-04-15T17:50:42;1.80;;;1.70;;
24635;SDS011;12772;49.794;10.024;2023-04-15T17:54:45;1.55;;;1.48;;
24635;SDS011;12772;49.794;10.024;2023-04-15T17:58:47;1.42;;;1.33;;
24635;SDS011;12772;49.794;10.024;2023-04-15T18:02:49;1.40;;;1.40;;
24635;SDS011;12772;49.794;10.024;2023-04-15T18:06:52;1.65;;;1.50;;
24635;SDS011;12772;49.794;10.024;2023-04-15T18:10:54;2.60;;;2.40;;
24635;SDS011;12772;49.794;10.024;2023-04-15T18:14:56;3.05;;;2.85;;
24635;SDS011;12772;49.794;10.024;2023-04-15T18:19:00;2.60;;;2.40;;
24635;SDS011;12772;49.794;10.024;2023-04-15T18:23:02;2.97;;;2.78;;
24635;SDS011;12772;49.794;10.024;2023-04-15T18:27:04;2.45;;;2.33;;
24635;SDS011;12772;49.794;10.024;2023-04-15T18:31:07;1.83;;;1.73;;
24635;SDS011;12772;49.794;10.024;2023-04-15T18:35:09;2.08;;;1.98;;
24635;SDS011;12772;49.794;10.024;2023-04-15T18:39:11;2.08;;;1.98;;
24635;SDS011;12772;49.794;10.024;2023-04-15T18:43:13;2.03;;;1.92;;
24635;SDS011;12772;49.794;10.024;2023-04-15T18:47:16;1.70;;;1.60;;
24635;SDS011;12772;49.794;10.024;2023-04-15T18:51:19;1.65;;;1.55;;
24635;SDS011;12772;49.794;10.024;2023-04-15T18:55:21;1.50;;;1.40;;
24635;SDS011;12772;49.794;10.024;2023-04-15T18:59:23;1.48;;;1.48;;
24635;SDS011;12772;49.794;10.024;2023-04-15T19:03:27;2.00;;;1.40;;
24635;SDS011;12772;49.794;10.024;2023-04-15T19:07:30;1.60;;;1.52;;
24635;SDS011;12772;49.794;10.024;2023-04-15T19:11:32;1.45;;;1.35;;
24635;SDS011;12772;49.794;10.024;2023-04-15T19:15:34;2.38;;;1.60;;
24635;SDS011;12772;49.794;10.024;2023-04-15T19:19:39;1.50;;;1.40;;
24635;SDS011;12772;49.794;10.024;2023-04-15T19:23:41;1.55;;;1.40;;
24635;SDS011;12772;49.794;10.024;2023-04-15T19:27:43;1.60;;;1.60;;
24635;SDS011;12772;49.794;10.024;2023-04-15T19:31:46;2.47;;;1.95;;
24635;SDS011;12772;49.794;10.024;2023-04-15T19:35:48;1.55;;;1.45;;
24635;SDS011;12772;49.794;10.024;2023-04-15T19:39:52;1.90;;;1.80;;
24635;SDS011;12772;49.794;10.024;2023-04-15T19:43:54;2.38;;;1.60;;
24635;SDS011;12772;49.794;10.024;2023-04-15T19:47:57;1.90;;;1.80;;
24635;SDS011;12772;49.794;10.024;2023-04-15T19:51:59;1.70;;;1.60;;
24635;SDS011;12772;49.794;10.024;2023-04-15T19:56:01;2.47;;;2.20;;
24635;SDS011;12772;49.794;10.024;2023-04-15T20:00:04;2.00;;;1.83;;
24635;SDS011;12772;49.794;10.024;2023-04-15T20:04:06;2.20;;;2.10;;
24635;SDS011;12772;49.794;10.024;2023-04-15T20:08:08;2.05;;;1.95;;
24635;SDS011;12772;49.794;10.024;2023-04-15T20:12:11;2.28;;;2.17;;
24635;SDS011;12772;49.794;10.024;2023-04-15T20:16:13;1.88;;;1.77;;
24635;SDS011;12772;49.794;10.024;2023-04-15T20:20:15;2.40;;;2.30;;
24635;SDS011;12772;49.794;10.024;2023-04-15T20:24:18;5.88;;;5.28;;
24635;SDS011;12772;49.794;10.024;2023-04-15T20:28:21;4.80;;;4.40;;
24635;SDS011;12772;49.794;10.024;2023-04-15T20:32:26;4.82;;;3.40;;
24635;SDS011;12772;49.794;10.024;2023-04-15T20:36:31;2.88;;;2.63;;
24635;SDS011;12772;49.794;10.024;2023-04-15T20:40:34;2.47;;;2.30;;
24635;SDS011;12772;49.794;10.024;2023-04-15T20:44:36;2.70;;;2.50;;
24635;SDS011;12772;49.794;10.024;2023-04-15T20:48:38;2.75;;;2.55;;
24635;SDS011;12772;49.794;10.024;2023-04-15T20:52:41;2.50;;;2.30;;
24635;SDS011;12772;49.794;10.024;2023-04-15T20:56:43;2.60;;;2.40;;
24635;SDS011;12772;49.794;10.024;2023-04-15T21:00:46;3.20;;;2.40;;
24635;SDS011;12772;49.794;10.024;2023-04-15T21:04:48;2.90;;;2.70;;
24635;SDS011;12772;49.794;10.024;2023-04-15T21:08:51;3.35;;;3.10;;
24635;SDS011;12772;49.794;10.024;2023-04-15T21:12:53;3.33;;;3.08;;
24635;SDS011;12772;49.794;10.024;2023-04-15T21:16:55;3.28;;;2.97;;
24635;SDS011;12772;49.794;10.024;2023-04-15T21:20:59;3.53;;;3.20;;
24635;SDS011;12772;49.794;10.024;2023-04-15T21:25:02;3.65;;;3.35;;
24635;SDS011;12772;49.794;10.024;2023-04-15T21:29:04;3.95;;;3.25;;
24635;SDS011;12772;49.794;10.024;2023-04-15T21:33:06;3.55;;;3.25;;
24635;SDS011;12772;49.794;10.024;2023-04-15T21:37:09;2.97;;;2.78;;
24635;SDS011;12772;49.794;10.024;2023-04-15T21:41:11;3.60;;;3.30;;
24635;SDS011;12772;49.794;10.024;2023-04-15T21:45:13;3.78;;;3.38;;
24635;SDS011;12772;49.794;10.024;2023-04-15T21:49:16;3.25;;;3.05;;
24635;SDS011;12772;49.794;10.024;2023-04-15T21:53:19;3.72;;;3.42;;
24635;SDS011;12772;49.794;10.024;2023-04-15T21:57:21;3.40;;;3.10;;
24635;SDS011;12772;49.794;10.024;2023-04-15T22:01:24;3.38;;;3.17;;
24635;SDS011;12772;49.794;10.024;2023-04-15T22:05:26;3.13;;;2.83;;
24635;SDS011;12772;49.794;10.024;2023-04-15T22:09:28;3.47;;;3.17;;
24635;SDS011;12772;49.794;10.024;2023-04-15T22:13:30;3.08;;;2.88;;
24635;SDS011;12772;49.794;10.024;2023-04-15T22:17:32;4.00;;;3.70;;
24635;SDS011;12772;49.794;10.024;2023-04-15T22:21:35;3.63;;;3.40;;
24635;SDS011;12772;49.794;10.024;2023-04-15T22:25:37;3.85;;;3.55;;
24635;SDS011;12772;49.794;10.024;2023-04-15T22:29:39;4.07;;;3.72;;
24635;SDS011;12772;49.794;10.024;2023-04-15T22:33:42;3.85;;;3.47;;
24635;SDS011;12772;49.794;10.024;2023-04-15T22:37:44;3.90;;;3.60;;
24635;SDS011;12772;49.794;10.024;2023-04-15T22:41:46;3.95;;;3.65;;
24635;SDS011;12772;49.794;10.024;2023-04-15T22:45:49;4.00;;;3.70;;
24635;SDS011;12772;49.794;10.024;2023-04-15T22:49:52;3.88;;;3.47;;
24635;SDS011;12772;49.794;10.024;2023-04-15T22:53:54;3.80;;;3.50;;
24635;SDS011;12772;49.794;10.024;2023-04-15T22:57:56;3.78;;;3.47;;
24635;SDS011;12772;49.794;10.024;2023-04-15T23:01:58;3.78;;;3.47;;
24635;SDS011;12772;49.794;10.024;2023-04-15T23:06:00;3.75;;;3.45;;
24635;SDS011;12772;49.794;10.024;2023-04-15T23:10:02;4.47;;;4.00;;
24635;SDS011;12772;49.794;10.024;2023-04-15T23:14:05;3.47;;;3.17;;
24635;SDS011;12772;49.794;10.024;2023-04-15T23:18:07;3.83;;;3.45;;
24635;SDS011;12772;49.794;10.024;2023-04-15T23:22:09;5.00;;;4.60;;
24635;SDS011;12772;49.794;10.024;2023-04-15T23:26:11;4.22;;;3.83;;
24635;SDS011;12772;49.794;10.024;2023-04-15T23:30:13;4.15;;;3.75;;
24635;SDS011;12772;49.794;10.024;2023-04-15T23:34:15;4.60;;;4.20;;
24635;SDS011;12772;49.794;10.024;2023-04-15T23:38:17;4.07;;;3.78;;
24635;SDS011;12772;49.794;10.024;2023-04-15T23:42:20;4.00;;;3.70;;
24635;SDS011;12772;49.794;10.024;2023-04-15T23:46:22;4.50;;;4.10;;
24635;SDS011;12772;49.794;10.024;2023-04-15T23:50:25;4.22;;;3.83;;
24635;SDS011;12772;49.794;10.024;2023-04-15T23:54:28;4.28;;;3.80;;
24635;SDS011;12772;49.794;10.024;2023-04-15T23:58:30;4.18;;;3.78;;
